createdAt,value
2019-03-28T00:04:36.387Z,8.70
2019-03-28T00:09:41.880Z,6.83
2019-03-28T00:14:46.937Z,8.20
2019-03-28T00:19:52.040Z,7.80
2019-03-28T00:25:02.509Z,7.37
2019-03-28T00:30:08.115Z,7.80
2019-03-28T00:35:15.462Z,8.20
2019-03-28T00:40:20.920Z,7.87
2019-03-28T00:45:25.915Z,8.43
2019-03-28T00:50:33.082Z,7.67
2019-03-28T00:55:38.376Z,6.42
2019-03-28T01:00:43.519Z,7.27
2019-03-28T01:05:49.123Z,8.07
2019-03-28T01:10:54.875Z,7.40
2019-03-28T01:15:59.951Z,6.33
2019-03-28T01:21:05.865Z,6.80
2019-03-28T01:26:10.951Z,6.97
2019-03-28T01:31:16.281Z,6.43
2019-03-28T01:36:21.677Z,7.10
2019-03-28T01:41:27.006Z,8.10
2019-03-28T01:46:32.154Z,6.17
2019-03-28T01:51:37.455Z,7.23
2019-03-28T01:56:42.939Z,6.73
2019-03-28T02:01:48.310Z,6.03
2019-03-28T02:06:53.325Z,6.50
2019-03-28T02:11:58.907Z,7.17
2019-03-28T02:17:04.155Z,7.03
2019-03-28T02:22:09.774Z,7.30
2019-03-28T02:27:23.781Z,8.20
2019-03-28T02:32:21.548Z,7.17
2019-03-28T02:37:26.990Z,7.70
2019-03-28T02:42:32.149Z,7.63
2019-03-28T02:47:37.799Z,6.93
2019-03-28T02:52:43.674Z,7.57
2019-03-28T02:57:48.856Z,7.33
2019-03-28T03:02:54.284Z,7.97
2019-03-28T03:07:59.325Z,8.20
2019-03-28T03:13:04.285Z,9.03
2019-03-28T03:18:09.563Z,8.57
2019-03-28T03:23:15.024Z,7.90
2019-03-28T03:28:20.072Z,8.57
2019-03-28T03:33:27.140Z,7.93
2019-03-28T03:38:32.641Z,7.63
2019-03-28T03:43:38.112Z,7.57
2019-03-28T03:48:43.333Z,7.45
2019-03-28T03:53:49.032Z,7.17
2019-03-28T03:58:54.094Z,8.27
2019-03-28T04:04:00.162Z,7.30
2019-03-28T04:09:06.813Z,7.30
2019-03-28T04:14:11.910Z,7.47
2019-03-28T04:19:16.931Z,6.83
2019-03-28T04:24:22.159Z,7.63
2019-03-28T04:29:27.541Z,6.93
2019-03-28T04:34:33.133Z,6.90
2019-03-28T04:39:39.804Z,7.07
2019-03-28T04:44:45.507Z,8.07
2019-03-28T04:49:51.044Z,6.90
2019-03-28T04:54:56.645Z,8.53
2019-03-28T05:00:01.868Z,7.53
2019-03-28T05:05:08.208Z,8.00
2019-03-28T05:10:13.303Z,8.03
2019-03-28T05:15:20.421Z,8.80
2019-03-28T05:20:24.987Z,8.68
2019-03-28T05:25:32.829Z,8.40
2019-03-28T05:30:38.479Z,9.45
2019-03-28T05:35:43.484Z,9.50
2019-03-28T05:40:51.863Z,8.40
2019-03-28T05:45:56.915Z,8.20
2019-03-28T05:51:04.565Z,9.97
2019-03-28T05:56:11.628Z,9.47
2019-03-28T06:01:18.330Z,9.33
2019-03-28T06:06:23.877Z,11.00
2019-03-28T06:11:29.641Z,9.97
2019-03-28T06:16:39.158Z,10.37
2019-03-28T06:21:47.966Z,11.03
2019-03-28T06:26:53.247Z,10.30
2019-03-28T06:31:58.754Z,11.20
2019-03-28T06:37:04.041Z,11.40
2019-03-28T06:42:09.161Z,10.60
2019-03-28T06:47:14.667Z,7.60
2019-03-28T06:52:21.176Z,5.77
2019-03-28T06:57:27.183Z,5.40
2019-03-28T07:02:32.795Z,6.17
2019-03-28T07:07:39.595Z,5.90
2019-03-28T07:12:46.108Z,7.87
2019-03-28T07:17:51.756Z,6.28
2019-03-28T07:22:58.323Z,6.53
2019-03-28T07:28:22.815Z,8.13
2019-03-28T07:33:28.091Z,14.00
2019-03-28T07:38:33.115Z,6.00
2019-03-28T07:43:38.541Z,12.53
2019-03-28T07:48:43.970Z,7.95
2019-03-28T07:53:49.308Z,7.87
2019-03-28T07:58:54.658Z,5.75
2019-03-28T08:03:59.922Z,5.30
2019-03-28T08:09:07.389Z,5.95
2019-03-28T08:14:12.433Z,5.85
2019-03-28T08:19:17.234Z,4.67
2019-03-28T08:24:22.332Z,5.53
2019-03-28T08:29:27.499Z,5.15
2019-03-28T08:34:33.158Z,4.70
2019-03-28T08:39:38.951Z,4.45
2019-03-28T08:44:44.450Z,5.20
2019-03-28T08:49:49.958Z,3.85
2019-03-28T08:54:55.958Z,4.70
2019-03-28T09:00:01.423Z,4.75
2019-03-28T09:05:06.761Z,3.92
2019-03-28T09:10:12.316Z,3.65
2019-03-28T09:15:18.916Z,3.05
2019-03-28T09:20:24.313Z,3.47
2019-03-28T09:25:29.591Z,3.20
2019-03-28T09:30:47.425Z,3.37
2019-03-28T09:35:44.037Z,3.12
2019-03-28T09:40:49.145Z,3.17
2019-03-28T09:45:54.223Z,3.20
2019-03-28T09:51:00.389Z,3.17
2019-03-28T09:56:05.864Z,2.80
2019-03-28T10:01:10.952Z,2.67
2019-03-28T10:06:18.768Z,3.30
2019-03-28T10:11:25.714Z,3.05
2019-03-28T10:16:31.397Z,3.20
2019-03-28T10:21:37.611Z,3.17
2019-03-28T10:26:45.660Z,2.80
2019-03-28T10:31:51.530Z,3.23
2019-03-28T10:36:56.554Z,3.10
2019-03-28T10:42:01.906Z,3.33
2019-03-28T10:47:07.646Z,2.97
2019-03-28T10:52:12.658Z,3.13
2019-03-28T10:57:29.702Z,4.20
2019-03-28T11:02:24.970Z,3.90
2019-03-28T11:07:30.330Z,3.70
2019-03-28T11:12:35.698Z,3.30
2019-03-28T11:17:40.805Z,3.93
2019-03-28T11:22:46.356Z,3.07
2019-03-28T11:27:53.630Z,3.90
2019-03-28T11:32:58.739Z,3.50
2019-03-28T11:38:04.118Z,2.70
2019-03-28T11:43:09.604Z,3.67
2019-03-28T11:48:14.951Z,3.23
2019-03-28T11:53:22.981Z,2.87
2019-03-28T11:58:28.740Z,3.00
2019-03-28T12:03:33.823Z,2.73
2019-03-28T12:08:38.858Z,2.93
2019-03-28T12:13:45.262Z,2.75
2019-03-28T12:18:50.557Z,2.40
2019-03-28T12:23:55.897Z,3.03
2019-03-28T12:29:01.534Z,2.70
2019-03-28T12:34:07.207Z,2.80
2019-03-28T12:39:15.451Z,2.57
2019-03-28T12:44:20.135Z,2.47
2019-03-28T12:49:26.056Z,2.73
2019-03-28T12:54:31.159Z,2.80
2019-03-28T12:59:36.995Z,3.03
2019-03-28T13:04:42.528Z,2.90
2019-03-28T13:09:48.167Z,3.30
2019-03-28T13:14:53.612Z,3.43
2019-03-28T13:19:59.186Z,3.40
2019-03-28T13:25:04.511Z,4.10
2019-03-28T13:30:10.724Z,3.98
2019-03-28T13:35:15.873Z,2.45
2019-03-28T13:40:20.865Z,2.97
2019-03-28T13:45:26.062Z,3.17
2019-03-28T13:50:31.133Z,2.47
2019-03-28T13:55:36.428Z,2.50
2019-03-28T14:00:41.691Z,2.93
2019-03-28T14:05:47.738Z,2.80
2019-03-28T14:10:52.687Z,2.40
2019-03-28T14:15:58.449Z,2.67
2019-03-28T14:21:03.503Z,2.07
2019-03-28T14:26:08.510Z,2.30
2019-03-28T14:31:13.913Z,1.83
2019-03-28T14:36:19.174Z,2.00
2019-03-28T14:41:24.209Z,1.97
2019-03-28T14:46:29.464Z,1.97
2019-03-28T14:51:35.233Z,2.17
2019-03-28T14:56:41.246Z,2.03
2019-03-28T15:01:46.547Z,2.07
2019-03-28T15:06:52.630Z,2.50
2019-03-28T15:11:58.127Z,2.17
2019-03-28T15:17:05.797Z,2.17
2019-03-28T15:22:10.883Z,2.20
2019-03-28T15:27:16.873Z,2.73
2019-03-28T15:32:22.263Z,2.73
2019-03-28T15:37:27.701Z,2.00
2019-03-28T15:42:32.949Z,1.93
2019-03-28T15:47:38.882Z,2.10
2019-03-28T15:52:44.421Z,2.20
2019-03-28T15:57:49.987Z,2.53
2019-03-28T16:02:55.637Z,2.47
2019-03-28T16:08:01.504Z,2.43
2019-03-28T16:13:06.632Z,2.60
2019-03-28T16:18:11.754Z,2.70
2019-03-28T16:23:18.113Z,2.00
2019-03-28T16:28:23.862Z,2.80
2019-03-28T16:33:30.655Z,2.30
2019-03-28T16:38:36.640Z,2.10
2019-03-28T16:43:41.810Z,1.93
2019-03-28T16:48:47.556Z,1.77
2019-03-28T16:53:53.447Z,2.60
2019-03-28T16:58:58.587Z,2.70
2019-03-28T17:04:03.621Z,2.40
2019-03-28T17:09:13.016Z,2.83
2019-03-28T17:14:18.473Z,3.40
2019-03-28T17:19:25.060Z,3.57
2019-03-28T17:24:30.533Z,3.30
2019-03-28T17:29:35.855Z,5.40
2019-03-28T17:34:41.511Z,4.97
2019-03-28T17:39:48.653Z,3.80
2019-03-28T17:44:54.121Z,4.07
2019-03-28T17:49:59.794Z,4.07
2019-03-28T17:55:06.181Z,3.50
2019-03-28T18:00:12.476Z,3.70
2019-03-28T18:05:18.142Z,5.67
2019-03-28T18:10:23.553Z,4.70
2019-03-28T18:15:28.960Z,5.03
2019-03-28T18:20:37.130Z,7.60
2019-03-28T18:25:43.250Z,5.50
2019-03-28T18:30:48.814Z,6.57
2019-03-28T18:35:54.958Z,4.53
2019-03-28T18:41:00.152Z,5.20
2019-03-28T18:46:06.674Z,5.53
2019-03-28T18:51:14.918Z,7.07
2019-03-28T18:56:20.524Z,6.27
2019-03-28T19:01:26.744Z,5.47
2019-03-28T19:06:32.446Z,6.43
2019-03-28T19:11:40.954Z,5.53
2019-03-28T19:16:49.560Z,4.60
2019-03-28T19:21:55.944Z,4.33
2019-03-28T19:27:03.256Z,3.37
2019-03-28T19:32:19.031Z,3.70
2019-03-28T19:37:25.779Z,3.60
2019-03-28T19:42:31.363Z,3.30
2019-03-28T19:47:36.705Z,3.22
2019-03-28T19:52:41.927Z,4.43
2019-03-28T19:57:47.344Z,5.17
2019-03-28T20:03:00.382Z,3.90
2019-03-28T20:08:15.598Z,3.30
2019-03-28T20:13:14.793Z,3.27
2019-03-28T20:18:21.669Z,3.22
2019-03-28T20:23:29.113Z,2.87
2019-03-28T20:28:34.863Z,2.50
2019-03-28T20:33:41.118Z,3.23
2019-03-28T20:38:49.917Z,2.67
2019-03-28T20:44:02.827Z,3.23
2019-03-28T20:49:09.173Z,3.07
2019-03-28T20:54:15.894Z,3.13
2019-03-28T20:59:22.974Z,3.63
2019-03-28T21:04:35.860Z,2.97
2019-03-28T21:09:41.678Z,3.80
2019-03-28T21:14:48.056Z,3.03
2019-03-28T21:19:54.284Z,3.20
2019-03-28T21:25:02.724Z,3.50
2019-03-28T21:30:08.396Z,3.10
2019-03-28T21:35:14.372Z,3.97
2019-03-28T21:40:22.306Z,4.83
2019-03-28T21:45:27.679Z,4.20
2019-03-28T21:50:32.829Z,4.73
2019-03-28T21:55:38.567Z,6.37
2019-03-28T22:00:47.249Z,4.30
2019-03-28T22:05:52.765Z,4.80
2019-03-28T22:10:57.940Z,5.57
2019-03-28T22:16:03.219Z,4.90
2019-03-28T22:21:08.216Z,5.27
2019-03-28T22:26:15.961Z,4.03
2019-03-28T22:31:21.677Z,6.67
2019-03-28T22:36:26.727Z,7.97
2019-03-28T22:41:32.018Z,6.80
2019-03-28T22:46:39.719Z,6.93
2019-03-28T22:51:43.999Z,7.87
2019-03-28T22:56:49.965Z,6.60
2019-03-28T23:01:55.138Z,7.03
2019-03-28T23:07:10.344Z,6.83
2019-03-28T23:12:07.086Z,5.40
2019-03-28T23:17:12.407Z,6.67
2019-03-28T23:22:17.788Z,5.60
2019-03-28T23:27:23.082Z,7.30
2019-03-28T23:32:28.422Z,6.50
2019-03-28T23:37:33.834Z,7.60
2019-03-28T23:42:39.038Z,6.23
2019-03-28T23:47:44.391Z,6.87
2019-03-28T23:52:50.123Z,7.60
2019-03-28T23:57:55.480Z,8.50
